Terminal Aerodrome Forecast
Issued by NWS

Home | Current Version | Previous Version | Text Only | Print | Product List | Glossary Off
Versions: 1 2 3 4 5 6 7 8 9 10 11 12 13 14 15 16

000
FTUS41 KCLE 242054 AAB
TAFFDY
TAF AMD
KFDY 242054Z 2421/2518 14007KT P6SM VCSH SCT040 BKN120
      TEMPO 2421/2423 20008KT -SHRA BKN035
     FM242300 22011KT P6SM SCT040 BKN200
     FM251000 23008KT P6SM VCTS BKN035CB OVC080
     FM251400 26010KT P6SM SCT035 BKN100=

USA.gov is the U.S. government's official web portal to all federal, state and local government web resources and services.